createdAt,value
2022-09-12T00:00:46.914Z,59.73
2022-09-12T00:03:14.833Z,59.80
2022-09-12T00:05:43.251Z,59.58
2022-09-12T00:08:11.564Z,59.71
2022-09-12T00:10:39.786Z,60.02
2022-09-12T00:13:08.868Z,59.99
2022-09-12T00:15:40.745Z,59.95
2022-09-12T00:18:09.283Z,59.75
2022-09-12T00:20:37.168Z,60.10
2022-09-12T00:23:05.065Z,60.07
2022-09-12T00:25:32.934Z,60.04
2022-09-12T00:28:00.845Z,59.68
2022-09-12T00:30:28.742Z,59.61
2022-09-12T00:32:58.115Z,59.61
2022-09-12T00:35:25.993Z,59.51
2022-09-12T00:37:53.895Z,59.70
2022-09-12T00:40:21.768Z,60.10
2022-09-12T00:42:49.682Z,60.29
2022-09-12T00:45:21.228Z,59.89
2022-09-12T00:47:49.132Z,60.12
2022-09-12T00:50:18.391Z,60.22
2022-09-12T00:52:47.596Z,60.24
2022-09-12T00:55:16.918Z,60.40
2022-09-12T00:57:46.279Z,60.44
2022-09-12T01:00:16.472Z,60.63
2022-09-12T01:02:44.754Z,60.68
2022-09-12T01:05:12.657Z,60.52
2022-09-12T01:07:41.950Z,60.53
2022-09-12T01:10:10.606Z,60.67
2022-09-12T01:12:39.875Z,61.16
2022-09-12T01:15:08.318Z,60.67
2022-09-12T01:17:40.547Z,60.53
2022-09-12T01:20:46.680Z,60.34
2022-09-12T01:23:34.393Z,60.53
2022-09-12T01:26:09.209Z,60.67
2022-09-12T01:28:48.394Z,60.42
2022-09-12T01:31:18.944Z,60.26
2022-09-12T01:33:57.490Z,60.33
2022-09-12T01:36:35.814Z,60.19
2022-09-12T01:39:04.700Z,60.21
2022-09-12T01:41:39.038Z,60.55
2022-09-12T01:44:10.702Z,60.63
2022-09-12T01:46:43.218Z,60.61
2022-09-12T01:49:15.243Z,60.72
2022-09-12T01:51:45.253Z,60.54
2022-09-12T01:54:15.727Z,60.33
2022-09-12T01:56:43.944Z,60.40
2022-09-12T01:59:13.173Z,60.51
2022-09-12T02:01:44.541Z,60.68
2022-09-12T02:04:13.676Z,60.30
2022-09-12T02:06:44.848Z,60.46
2022-09-12T02:09:14.076Z,60.51
2022-09-12T02:11:43.026Z,60.61
2022-09-12T02:14:12.019Z,60.10
2022-09-12T02:16:43.718Z,60.58
2022-09-12T02:19:12.957Z,60.13
2022-09-12T02:21:41.283Z,60.13
2022-09-12T02:24:09.597Z,60.02
2022-09-12T02:26:38.875Z,60.13
2022-09-12T02:29:07.759Z,59.87
2022-09-12T02:31:38.670Z,59.95
2022-09-12T02:34:11.899Z,60.45
2022-09-12T02:36:43.666Z,59.96
2022-09-12T02:39:11.530Z,60.52
2022-09-12T02:41:39.419Z,60.23
2022-09-12T02:44:07.433Z,59.73
2022-09-12T02:46:39.715Z,59.67
2022-09-12T02:49:09.434Z,60.17
2022-09-12T02:51:38.854Z,60.17
2022-09-12T02:54:07.509Z,59.74
2022-09-12T02:56:35.426Z,59.60
2022-09-12T02:59:04.686Z,59.71
2022-09-12T03:01:42.282Z,59.71
2022-09-12T03:04:26.630Z,59.58
2022-09-12T03:07:01.879Z,59.46
2022-09-12T03:09:32.185Z,59.46
2022-09-12T03:12:12.923Z,59.40
2022-09-12T03:14:51.180Z,59.10
2022-09-12T03:17:22.817Z,59.10
2022-09-12T03:19:55.304Z,59.28
2022-09-12T03:22:27.448Z,59.24
2022-09-12T03:24:56.651Z,59.25
2022-09-12T03:27:27.185Z,58.90
2022-09-12T03:29:55.235Z,59.34
2022-09-12T03:32:40.535Z,59.31
2022-09-12T03:35:09.122Z,58.91
2022-09-12T03:37:38.391Z,59.20
2022-09-12T03:40:07.133Z,58.77
2022-09-12T03:42:35.174Z,59.01
2022-09-12T03:45:03.166Z,59.11
2022-09-12T03:47:31.265Z,59.25
2022-09-12T03:49:59.158Z,59.04
2022-09-12T03:52:27.048Z,59.04
2022-09-12T03:54:56.447Z,59.44
2022-09-12T03:57:24.283Z,59.49
2022-09-12T03:59:52.138Z,59.00
2022-09-12T04:02:20.191Z,59.36
2022-09-12T04:04:48.910Z,59.61
2022-09-12T04:07:16.860Z,59.15
2022-09-12T04:09:44.770Z,59.64
2022-09-12T04:12:14.896Z,59.14
2022-09-12T04:14:42.782Z,59.45
2022-09-12T04:17:10.796Z,59.70
2022-09-12T04:19:38.797Z,59.52
2022-09-12T04:22:06.659Z,59.39
2022-09-12T04:24:34.553Z,59.44
2022-09-12T04:27:07.200Z,59.20
2022-09-12T04:29:36.983Z,58.61
2022-09-12T04:32:05.047Z,58.99
2022-09-12T04:34:32.967Z,59.10
2022-09-12T04:37:00.833Z,59.00
2022-09-12T04:39:28.813Z,58.79
2022-09-12T04:41:56.724Z,58.78
2022-09-12T04:44:24.637Z,59.25
2022-09-12T04:46:53.910Z,58.66
2022-09-12T04:49:21.799Z,59.18
2022-09-12T04:51:49.714Z,58.76
2022-09-12T04:54:18.332Z,59.28
2022-09-12T04:56:47.056Z,59.10
2022-09-12T04:59:15.793Z,58.73
2022-09-12T05:01:44.127Z,58.94
2022-09-12T05:04:14.068Z,58.99
2022-09-12T05:06:42.688Z,59.21
2022-09-12T05:09:12.432Z,58.90
2022-09-12T05:12:03.379Z,58.72
2022-09-12T05:14:29.483Z,58.22
2022-09-12T05:17:00.146Z,57.96
2022-09-12T05:19:30.095Z,58.64
2022-09-12T05:21:58.014Z,58.37
2022-09-12T05:24:26.092Z,58.46
2022-09-12T05:26:54.047Z,58.22
2022-09-12T05:29:22.142Z,58.44
2022-09-12T05:31:51.970Z,58.48
2022-09-12T05:34:20.047Z,58.68
2022-09-12T05:36:49.348Z,59.09
2022-09-12T05:39:18.550Z,59.15
2022-09-12T05:41:46.449Z,59.32
2022-09-12T05:44:15.137Z,59.01
2022-09-12T05:46:44.015Z,58.77
2022-09-12T05:49:13.025Z,58.80
2022-09-12T05:51:43.398Z,58.77
2022-09-12T05:54:13.450Z,58.70
2022-09-12T05:56:42.373Z,58.51
2022-09-12T05:59:13.173Z,58.51
2022-09-12T06:01:41.301Z,58.94
2022-09-12T06:04:09.253Z,58.64
2022-09-12T06:06:38.578Z,58.19
2022-09-12T06:09:06.857Z,58.27
2022-09-12T06:11:37.314Z,57.48
2022-09-12T06:14:05.388Z,57.69
2022-09-12T06:16:34.046Z,57.70
2022-09-12T06:19:02.833Z,57.63
2022-09-12T06:21:31.447Z,57.69
2022-09-12T06:23:59.787Z,57.38
2022-09-12T06:26:28.452Z,57.45
2022-09-12T06:28:58.759Z,57.83
2022-09-12T06:31:28.771Z,57.42
2022-09-12T06:33:57.037Z,57.72
2022-09-12T06:36:25.786Z,57.27
2022-09-12T06:38:57.412Z,57.61
2022-09-12T06:41:25.421Z,57.35
2022-09-12T06:43:53.357Z,57.19
2022-09-12T06:46:22.775Z,57.05
2022-09-12T06:48:50.729Z,57.14
2022-09-12T06:51:20.089Z,57.39
2022-09-12T06:53:48.297Z,57.10
2022-09-12T06:56:17.475Z,57.44
2022-09-12T06:58:45.372Z,57.35
2022-09-12T07:01:14.413Z,57.15
2022-09-12T07:03:44.211Z,56.81
2022-09-12T07:06:12.761Z,56.95
2022-09-12T07:08:41.050Z,57.17
2022-09-12T07:11:13.573Z,56.82
2022-09-12T07:13:41.561Z,57.11
2022-09-12T07:16:10.090Z,57.11
2022-09-12T07:18:39.260Z,56.72
2022-09-12T07:21:09.393Z,57.02
2022-09-12T07:23:37.247Z,57.04
2022-09-12T07:26:05.235Z,56.83
2022-09-12T07:28:33.790Z,56.97
2022-09-12T07:31:06.611Z,56.67
2022-09-12T07:33:34.657Z,56.50
2022-09-12T07:36:03.726Z,56.74
2022-09-12T07:38:33.012Z,56.63
2022-09-12T07:41:01.761Z,56.21
2022-09-12T07:43:29.685Z,56.12
2022-09-12T07:45:57.744Z,56.31
2022-09-12T07:48:27.030Z,56.19
2022-09-12T07:50:59.988Z,56.22
2022-09-12T07:53:28.108Z,55.85
2022-09-12T07:55:57.474Z,56.00
2022-09-12T07:58:25.530Z,55.56
2022-09-12T08:00:53.766Z,55.65
2022-09-12T08:03:22.228Z,55.70
2022-09-12T08:05:50.092Z,55.51
2022-09-12T08:08:18.755Z,55.89
2022-09-12T08:10:46.703Z,55.63
2022-09-12T08:13:15.953Z,55.47
2022-09-12T08:15:43.974Z,55.59
2022-09-12T08:18:11.860Z,55.66
2022-09-12T08:20:39.694Z,55.25
2022-09-12T08:23:07.819Z,55.61
2022-09-12T08:25:35.693Z,55.55
2022-09-12T08:28:03.883Z,55.23
2022-09-12T08:30:33.129Z,55.61
2022-09-12T08:33:01.157Z,55.44
2022-09-12T08:35:29.075Z,55.51
2022-09-12T08:37:56.929Z,55.27
2022-09-12T08:40:24.978Z,55.20
2022-09-12T08:42:55.871Z,55.26
2022-09-12T08:45:24.513Z,55.27
2022-09-12T08:47:53.882Z,55.31
2022-09-12T08:50:22.520Z,55.42
2022-09-12T08:52:58.578Z,55.18
2022-09-12T08:55:32.715Z,55.38
2022-09-12T08:58:01.488Z,55.31
2022-09-12T09:00:37.366Z,55.10
2022-09-12T09:03:30.112Z,55.19
2022-09-12T09:06:01.647Z,54.97
2022-09-12T09:08:35.630Z,55.03
2022-09-12T09:11:07.913Z,55.14
2022-09-12T09:14:15.071Z,54.92
2022-09-12T09:16:44.126Z,54.94
2022-09-12T09:19:15.788Z,54.79
2022-09-12T09:21:45.372Z,54.52
2022-09-12T09:24:14.273Z,54.58
2022-09-12T09:26:46.027Z,54.78
2022-09-12T09:29:17.300Z,54.50
2022-09-12T09:31:45.906Z,54.65
2022-09-12T09:34:19.127Z,54.52
2022-09-12T09:36:52.817Z,54.29
2022-09-12T09:39:30.094Z,54.48
2022-09-12T09:42:06.262Z,54.15
2022-09-12T09:44:34.191Z,54.38
2022-09-12T09:47:02.141Z,54.26
2022-09-12T09:49:32.312Z,54.15
2022-09-12T09:52:00.704Z,54.10
2022-09-12T09:54:30.296Z,54.21
2022-09-12T09:56:58.168Z,54.26
2022-09-12T09:59:27.779Z,53.99
2022-09-12T10:01:56.937Z,54.15
2022-09-12T10:04:26.099Z,53.92
2022-09-12T10:06:56.144Z,54.36
2022-09-12T10:09:25.982Z,54.12
2022-09-12T10:11:54.115Z,53.91
2022-09-12T10:14:38.920Z,53.94
2022-09-12T10:17:33.769Z,53.54
2022-09-12T10:20:21.543Z,53.73
2022-09-12T10:22:51.185Z,53.73
2022-09-12T10:25:19.533Z,53.55
2022-09-12T10:27:53.695Z,53.45
2022-09-12T10:30:21.919Z,53.46
2022-09-12T10:32:50.844Z,53.89
2022-09-12T10:35:19.733Z,53.83
2022-09-12T10:37:55.988Z,54.03
2022-09-12T10:40:24.839Z,53.87
2022-09-12T10:42:53.671Z,54.02
2022-09-12T10:45:26.770Z,53.99
2022-09-12T10:47:54.721Z,53.93
2022-09-12T10:50:26.302Z,53.92
2022-09-12T10:52:55.708Z,53.84
2022-09-12T10:55:29.643Z,53.78
2022-09-12T10:58:14.959Z,53.93
2022-09-12T11:00:44.538Z,53.80
2022-09-12T11:03:17.328Z,53.60
2022-09-12T11:05:54.252Z,53.73
2022-09-12T11:08:44.317Z,53.69
2022-09-12T11:11:29.112Z,53.83
2022-09-12T11:14:07.389Z,54.29
2022-09-12T11:16:42.100Z,54.37
2022-09-12T11:19:24.917Z,53.94
2022-09-12T11:22:07.486Z,53.97
2022-09-12T11:24:45.436Z,54.13
2022-09-12T11:27:29.994Z,53.76
2022-09-12T11:29:59.985Z,53.85
2022-09-12T11:32:36.990Z,53.87
2022-09-12T11:35:08.311Z,53.60
2022-09-12T11:37:57.447Z,53.72
2022-09-12T11:40:30.154Z,53.56
2022-09-12T11:43:01.059Z,53.52
2022-09-12T11:45:30.309Z,53.66
2022-09-12T11:48:00.444Z,53.39
2022-09-12T11:50:28.968Z,53.34
2022-09-12T11:52:58.867Z,53.31
2022-09-12T11:55:29.853Z,53.23
2022-09-12T11:57:58.572Z,53.35
2022-09-12T12:00:28.844Z,53.38
2022-09-12T12:03:00.269Z,53.30
2022-09-12T12:05:30.335Z,53.10
2022-09-12T12:07:58.843Z,53.05
2022-09-12T12:10:32.332Z,53.38
2022-09-12T12:13:00.459Z,53.05
2022-09-12T12:15:31.397Z,53.05
2022-09-12T12:18:04.296Z,53.13
2022-09-12T12:20:32.510Z,52.79
2022-09-12T12:23:00.363Z,52.75
2022-09-12T12:25:40.789Z,52.91
2022-09-12T12:28:09.159Z,52.56
2022-09-12T12:31:04.531Z,52.82
2022-09-12T12:34:09.208Z,52.77
2022-09-12T12:36:41.221Z,52.91
2022-09-12T12:39:49.431Z,52.86
2022-09-12T12:43:10.877Z,53.00
2022-09-12T12:46:13.909Z,53.00
2022-09-12T12:48:54.924Z,52.98
2022-09-12T12:51:43.912Z,52.99
2022-09-12T12:54:33.220Z,52.94
2022-09-12T12:57:17.536Z,52.95
2022-09-12T12:59:50.139Z,52.93
2022-09-12T13:02:22.536Z,52.61
2022-09-12T13:04:50.497Z,52.79
2022-09-12T13:07:26.154Z,52.54
2022-09-12T13:09:54.630Z,52.25
2022-09-12T13:12:23.410Z,52.25
2022-09-12T13:14:53.923Z,52.06
2022-09-12T13:17:32.334Z,52.16
2022-09-12T13:20:29.912Z,52.12
2022-09-12T13:22:58.183Z,52.26
2022-09-12T13:25:28.696Z,51.98
2022-09-12T13:28:05.162Z,51.75
2022-09-12T13:30:33.910Z,52.01
2022-09-12T13:33:29.212Z,51.85
2022-09-12T13:36:27.040Z,51.61
2022-09-12T13:39:00.458Z,51.81
2022-09-12T13:41:37.893Z,51.28
2022-09-12T13:44:06.579Z,50.95
2022-09-12T13:46:34.754Z,50.50
2022-09-12T13:49:09.173Z,49.15
2022-09-12T13:51:37.044Z,48.15
2022-09-12T13:54:05.182Z,48.39
2022-09-12T13:56:33.168Z,49.74
2022-09-12T13:59:01.724Z,50.34
2022-09-12T14:01:39.001Z,50.60
2022-09-12T14:04:33.450Z,50.94
2022-09-12T14:07:01.773Z,51.05
2022-09-12T14:09:32.087Z,51.24
2022-09-12T14:11:59.976Z,51.61
2022-09-12T14:14:33.185Z,51.09
2022-09-12T14:17:01.089Z,50.67
2022-09-12T14:19:30.309Z,50.30
2022-09-12T14:21:58.356Z,50.61
2022-09-12T14:24:26.245Z,50.68
2022-09-12T14:26:56.672Z,50.63
2022-09-12T14:29:25.234Z,50.73
2022-09-12T14:32:24.113Z,51.02
2022-09-12T14:35:19.131Z,49.86
2022-09-12T14:37:48.096Z,49.89
2022-09-12T14:40:20.140Z,49.26
2022-09-12T14:42:49.568Z,49.22
2022-09-12T14:45:18.985Z,49.52
2022-09-12T14:47:49.794Z,49.73
2022-09-12T14:50:20.453Z,50.20
2022-09-12T14:52:48.357Z,49.71
2022-09-12T14:55:24.960Z,49.29
2022-09-12T14:58:13.457Z,48.69
2022-09-12T15:00:53.577Z,48.83
2022-09-12T15:03:26.003Z,48.76
2022-09-12T15:05:55.248Z,48.54
2022-09-12T15:08:23.155Z,48.21
2022-09-12T15:10:51.028Z,47.97
2022-09-12T15:13:20.761Z,47.72
2022-09-12T15:15:50.498Z,48.10
2022-09-12T15:18:19.681Z,48.22
2022-09-12T15:20:48.239Z,48.15
2022-09-12T15:23:19.889Z,48.91
2022-09-12T15:25:47.964Z,49.00
2022-09-12T15:28:20.252Z,48.93
2022-09-12T15:30:49.581Z,49.14
2022-09-12T15:33:17.687Z,49.49
2022-09-12T15:35:45.537Z,49.64
2022-09-12T15:38:13.488Z,49.55
2022-09-12T15:40:42.736Z,50.16
2022-09-12T15:43:10.937Z,49.94
2022-09-12T15:45:38.831Z,50.40
2022-09-12T15:48:06.700Z,49.94
2022-09-12T15:50:34.754Z,50.47
2022-09-12T15:53:02.987Z,50.50
2022-09-12T15:55:32.150Z,50.33
2022-09-12T15:58:06.295Z,50.31
2022-09-12T16:00:35.017Z,50.69
2022-09-12T16:03:03.050Z,50.71
2022-09-12T16:05:30.962Z,50.70
2022-09-12T16:07:58.839Z,51.39
2022-09-12T16:10:27.789Z,51.44
2022-09-12T16:12:55.677Z,51.47
2022-09-12T16:15:25.717Z,51.32
2022-09-12T16:17:53.656Z,51.37
2022-09-12T16:20:21.899Z,51.79
2022-09-12T16:22:49.818Z,51.85
2022-09-12T16:25:18.175Z,51.63
2022-09-12T16:27:46.188Z,51.95
2022-09-12T16:30:14.567Z,51.85
2022-09-12T16:32:43.763Z,52.19
2022-09-12T16:35:11.650Z,52.02
2022-09-12T16:37:39.528Z,51.72
2022-09-12T16:40:09.331Z,52.08
2022-09-12T16:42:40.687Z,52.47
2022-09-12T16:45:12.039Z,52.45
2022-09-12T16:47:39.996Z,51.96
2022-09-12T16:50:10.080Z,52.26
2022-09-12T16:52:37.957Z,52.60
2022-09-12T16:55:06.823Z,52.67
2022-09-12T16:57:34.767Z,52.94
2022-09-12T17:00:03.405Z,52.99
2022-09-12T17:02:31.317Z,53.28
2022-09-12T17:04:59.344Z,53.39
2022-09-12T17:07:29.029Z,53.28
2022-09-12T17:09:57.256Z,53.00
2022-09-12T17:12:25.286Z,53.35
2022-09-12T17:14:53.184Z,53.26
2022-09-12T17:17:21.087Z,53.37
2022-09-12T17:19:49.017Z,53.43
2022-09-12T17:22:16.917Z,53.08
2022-09-12T17:24:46.281Z,53.41
2022-09-12T17:27:14.429Z,53.67
2022-09-12T17:29:42.295Z,53.45
2022-09-12T17:32:11.745Z,53.79
2022-09-12T17:34:42.454Z,53.62
2022-09-12T17:37:10.342Z,53.66
2022-09-12T17:39:38.317Z,53.83
2022-09-12T17:42:07.952Z,53.73
2022-09-12T17:44:36.093Z,54.20
2022-09-12T17:47:05.066Z,54.20
2022-09-12T17:49:33.979Z,53.98
2022-09-12T17:52:01.937Z,53.91
2022-09-12T17:54:29.897Z,54.16
2022-09-12T17:56:57.774Z,54.82
2022-09-12T17:59:27.184Z,54.95
2022-09-12T18:02:12.740Z,55.44
2022-09-12T18:04:41.462Z,55.30
2022-09-12T18:07:09.421Z,55.38
2022-09-12T18:09:37.415Z,55.29
2022-09-12T18:12:05.567Z,55.70
2022-09-12T18:14:34.884Z,55.68
2022-09-12T18:17:02.785Z,55.76
2022-09-12T18:19:30.912Z,55.98
2022-09-12T18:21:58.945Z,55.69
2022-09-12T18:24:26.896Z,56.08
2022-09-12T18:26:56.599Z,56.15
2022-09-12T18:29:24.580Z,56.02
2022-09-12T18:31:53.836Z,56.28
2022-09-12T18:34:24.478Z,56.06
2022-09-12T18:36:55.585Z,56.18
2022-09-12T18:39:27.530Z,56.19
2022-09-12T18:42:01.602Z,56.28
2022-09-12T18:44:29.926Z,56.27
2022-09-12T18:46:59.333Z,56.25
2022-09-12T18:49:30.273Z,56.61
2022-09-12T18:51:58.081Z,56.40
2022-09-12T18:54:29.272Z,56.74
2022-09-12T18:56:57.115Z,56.60
2022-09-12T18:59:24.929Z,56.60
2022-09-12T19:01:52.786Z,56.81
2022-09-12T19:04:22.267Z,56.73
2022-09-12T19:06:52.890Z,56.88
2022-09-12T19:09:24.128Z,56.89
2022-09-12T19:11:52.610Z,56.91
2022-09-12T19:14:24.926Z,57.03
2022-09-12T19:16:52.930Z,56.96
2022-09-12T19:19:22.446Z,57.37
2022-09-12T19:21:50.243Z,57.39
2022-09-12T19:24:18.103Z,57.39
2022-09-12T19:26:47.382Z,57.35
2022-09-12T19:29:16.587Z,57.37
2022-09-12T19:31:44.533Z,57.29
2022-09-12T19:34:15.380Z,57.47
2022-09-12T19:36:46.604Z,57.68
2022-09-12T19:39:19.616Z,57.91
2022-09-12T19:41:50.775Z,57.47
2022-09-12T19:44:21.800Z,57.58
2022-09-12T19:46:49.882Z,57.49
2022-09-12T19:49:17.854Z,57.61
2022-09-12T19:51:47.072Z,57.70
2022-09-12T19:54:14.915Z,57.98
2022-09-12T19:56:45.566Z,57.63
2022-09-12T19:59:13.805Z,57.88
2022-09-12T20:01:41.800Z,57.93
2022-09-12T20:04:10.479Z,57.88
2022-09-12T20:06:38.668Z,58.07
2022-09-12T20:09:08.122Z,58.21
2022-09-12T20:11:36.219Z,58.11
2022-09-12T20:14:04.134Z,58.34
2022-09-12T20:16:33.543Z,58.19
2022-09-12T20:19:02.286Z,58.25
2022-09-12T20:21:33.017Z,58.08
2022-09-12T20:24:02.312Z,58.25
2022-09-12T20:26:31.673Z,58.07
2022-09-12T20:28:59.704Z,58.23
2022-09-12T20:31:27.711Z,58.02
2022-09-12T20:33:55.931Z,58.15
2022-09-12T20:36:23.940Z,58.36
2022-09-12T20:38:53.816Z,58.33
2022-09-12T20:41:21.900Z,58.43
2022-09-12T20:43:52.298Z,58.52
2022-09-12T20:46:22.261Z,58.46
2022-09-12T20:48:50.571Z,58.58
2022-09-12T20:51:19.055Z,58.60
2022-09-12T20:53:47.043Z,58.45
2022-09-12T20:56:15.187Z,58.23
2022-09-12T20:58:44.457Z,58.43
2022-09-12T21:01:15.990Z,58.63
2022-09-12T21:03:44.558Z,58.58
2022-09-12T21:06:13.576Z,58.62
2022-09-12T21:08:41.470Z,58.64
2022-09-12T21:11:09.360Z,58.65
2022-09-12T21:13:37.489Z,58.82
2022-09-12T21:16:06.714Z,58.70
2022-09-12T21:18:36.130Z,58.82
2022-09-12T21:21:04.158Z,58.86
2022-09-12T21:23:32.157Z,58.95
2022-09-12T21:26:00.252Z,58.62
2022-09-12T21:28:28.192Z,58.86
2022-09-12T21:30:56.232Z,58.54
2022-09-12T21:33:24.145Z,58.58
2022-09-12T21:35:53.321Z,58.67
2022-09-12T21:38:21.320Z,58.59
2022-09-12T21:40:49.514Z,58.83
2022-09-12T21:43:17.423Z,59.01
2022-09-12T21:45:45.345Z,59.14
2022-09-12T21:48:13.495Z,59.15
2022-09-12T21:50:41.390Z,59.29
2022-09-12T21:53:10.712Z,59.21
2022-09-12T21:55:38.612Z,59.27
2022-09-12T21:58:06.518Z,59.13
2022-09-12T22:00:34.412Z,59.37
2022-09-12T22:03:03.396Z,59.55
2022-09-12T22:05:32.708Z,59.54
2022-09-12T22:08:00.945Z,59.53
2022-09-12T22:10:30.205Z,59.60
2022-09-12T22:12:58.727Z,59.67
2022-09-12T22:15:42.059Z,59.69
2022-09-12T22:18:10.039Z,59.74
2022-09-12T22:20:37.874Z,59.74
2022-09-12T22:23:24.961Z,60.03
2022-09-12T22:25:56.030Z,60.16
2022-09-12T22:28:25.128Z,59.96
2022-09-12T22:30:54.379Z,59.94
2022-09-12T22:33:22.392Z,60.16
2022-09-12T22:35:50.308Z,60.14
2022-09-12T22:38:18.198Z,59.99
2022-09-12T22:40:46.154Z,60.08
2022-09-12T22:43:15.839Z,59.89
2022-09-12T22:45:43.807Z,59.89
2022-09-12T22:48:11.665Z,60.00
2022-09-12T22:50:39.590Z,59.96
2022-09-12T22:53:07.639Z,59.63
2022-09-12T22:55:35.525Z,59.89
2022-09-12T22:58:04.774Z,59.58
2022-09-12T23:00:34.492Z,59.42
2022-09-12T23:03:02.749Z,59.46
2022-09-12T23:05:30.682Z,59.23
2022-09-12T23:07:59.020Z,59.55
2022-09-12T23:10:27.081Z,59.83
2022-09-12T23:12:55.439Z,59.90
2022-09-12T23:15:23.361Z,59.28
2022-09-12T23:17:53.087Z,59.56
2022-09-12T23:20:20.958Z,59.77
2022-09-12T23:22:48.868Z,59.58
